Terminal Aerodrome Forecast
Issued by NWS

Home | Current Version | Previous Version | Text Only | Print | Product List | Glossary On
Versions: 1 2 3 4 5 6 7 8 9 10 11 12 13 14 15 16
774
FTUS43 KIWX 300520
TAFSBN
TAF
KSBN 300520Z 3006/3106 VRB03KT P6SM FEW050 SCT250
     FM300900 VRB03KT 3SM BR FEW030 SCT250
     FM301300 21005KT P6SM SCT040 SCT250
     FM301900 27005KT P6SM SCT040 BKN150=

USA.gov is the U.S. government's official web portal to all federal, state and local government web resources and services.